createdAt,value
2017-09-17T00:04:51.000Z,63.022
2017-09-17T00:14:51.000Z,62.974
2017-09-17T00:24:51.000Z,63.09
2017-09-17T00:34:53.000Z,63.108
2017-09-17T00:44:51.000Z,63.018
2017-09-17T00:54:51.000Z,63.004
2017-09-17T01:04:51.000Z,62.908
2017-09-17T01:14:51.000Z,62.934
2017-09-17T01:24:51.000Z,62.942
2017-09-17T01:34:51.000Z,62.983
2017-09-17T01:44:51.000Z,62.948
2017-09-17T02:04:51.000Z,62.952
2017-09-17T02:24:51.000Z,62.956
2017-09-17T02:34:51.000Z,62.984
2017-09-17T02:54:51.000Z,62.99
2017-09-17T03:04:51.000Z,62.965
2017-09-17T03:14:51.000Z,62.929
2017-09-17T03:24:52.000Z,63.023
2017-09-17T03:34:52.000Z,63.009
2017-09-17T03:44:52.000Z,63.007
2017-09-17T03:54:52.000Z,63.058
2017-09-17T04:04:52.000Z,62.971
2017-09-17T04:14:52.000Z,62.883
2017-09-17T04:24:52.000Z,62.922
2017-09-17T04:34:52.000Z,62.888
2017-09-17T04:44:52.000Z,62.993
2017-09-17T04:54:52.000Z,63.032
2017-09-17T05:04:52.000Z,62.871
2017-09-17T05:14:52.000Z,62.888
2017-09-17T05:24:52.000Z,62.918
2017-09-17T05:34:52.000Z,62.874
2017-09-17T05:44:52.000Z,62.881
2017-09-17T05:54:52.000Z,62.829
2017-09-17T06:04:52.000Z,62.633
2017-09-17T06:14:52.000Z,62.473
2017-09-17T06:24:52.000Z,62.304
2017-09-17T06:34:52.000Z,62.219
2017-09-17T06:44:52.000Z,61.997
2017-09-17T06:54:52.000Z,61.915
2017-09-17T07:04:52.000Z,61.86
2017-09-17T07:14:52.000Z,61.704
2017-09-17T07:24:52.000Z,61.451
2017-09-17T07:34:52.000Z,61.293
2017-09-17T07:44:52.000Z,61.252
2017-09-17T07:54:52.000Z,61.083
2017-09-17T08:04:52.000Z,61.158
2017-09-17T08:14:52.000Z,60.663
2017-09-17T08:24:52.000Z,60.58
2017-09-17T08:34:52.000Z,60.414
2017-09-17T08:44:52.000Z,60.45
2017-09-17T08:54:52.000Z,60.374
2017-09-17T09:04:52.000Z,59.832
2017-09-17T09:14:52.000Z,58.901
2017-09-17T09:24:52.000Z,58.318
2017-09-17T09:34:52.000Z,58.088
2017-09-17T09:44:52.000Z,57.708
2017-09-17T09:54:54.000Z,57.676
2017-09-17T10:04:52.000Z,57.459
2017-09-17T10:14:52.000Z,57.217
2017-09-17T10:24:52.000Z,57.534
2017-09-17T10:34:53.000Z,57.431
2017-09-17T10:44:53.000Z,57.595
2017-09-17T10:54:52.000Z,57.407
2017-09-17T11:04:52.000Z,57.068
2017-09-17T11:14:52.000Z,56.38
2017-09-17T11:24:53.000Z,55.451
2017-09-17T11:34:53.000Z,56.276
2017-09-17T11:44:53.000Z,56.874
2017-09-17T11:54:53.000Z,57.32
2017-09-17T12:04:53.000Z,57.173
2017-09-17T12:14:53.000Z,56.971
2017-09-17T12:24:53.000Z,57.333
2017-09-17T12:34:53.000Z,57.596
2017-09-17T12:44:53.000Z,57.606
2017-09-17T12:54:53.000Z,57.682
2017-09-17T13:04:53.000Z,57.312
2017-09-17T13:24:53.000Z,57.06
2017-09-17T13:34:53.000Z,56.678
2017-09-17T13:44:53.000Z,56.637
2017-09-17T13:54:53.000Z,56.626
2017-09-17T14:04:53.000Z,56.583
2017-09-17T14:14:53.000Z,56.563
2017-09-17T14:24:53.000Z,56.553
2017-09-17T14:34:53.000Z,56.575
2017-09-17T14:44:53.000Z,56.588
2017-09-17T14:54:53.000Z,56.829
2017-09-17T15:04:53.000Z,57.016
2017-09-17T15:14:53.000Z,57.032
2017-09-17T15:24:53.000Z,56.701
2017-09-17T15:34:53.000Z,56.563
2017-09-17T15:44:53.000Z,56.923
2017-09-17T15:54:53.000Z,57.485
2017-09-17T16:04:53.000Z,58.171
2017-09-17T16:14:53.000Z,58.893
2017-09-17T16:24:53.000Z,59.503
2017-09-17T16:34:53.000Z,59.848
2017-09-17T16:44:53.000Z,59.877
2017-09-17T16:54:53.000Z,59.849
2017-09-17T17:04:53.000Z,60.202
2017-09-17T17:14:55.000Z,59.988
2017-09-17T17:24:53.000Z,60.188
2017-09-17T17:34:54.000Z,60.212
2017-09-17T17:44:53.000Z,60.377
2017-09-17T17:54:53.000Z,60.347
2017-09-17T18:04:53.000Z,60.22
2017-09-17T18:14:53.000Z,60.218
2017-09-17T18:24:54.000Z,60.289
2017-09-17T18:34:53.000Z,60.38
2017-09-17T18:44:53.000Z,60.366
2017-09-17T18:54:55.000Z,60.379
2017-09-17T19:04:54.000Z,60.471
2017-09-17T19:14:54.000Z,60.534
2017-09-17T19:24:54.000Z,60.63
2017-09-17T19:34:54.000Z,60.655
2017-09-17T19:44:54.000Z,61.613
2017-09-17T19:54:54.000Z,62.046
2017-09-17T20:04:54.000Z,62.206
2017-09-17T20:14:54.000Z,62.442
2017-09-17T20:24:54.000Z,62.624
2017-09-17T20:34:54.000Z,62.832
2017-09-17T20:44:54.000Z,62.925
2017-09-17T20:54:54.000Z,62.669
2017-09-17T21:04:54.000Z,62.676
2017-09-17T21:24:54.000Z,62.668
2017-09-17T21:34:54.000Z,62.565
2017-09-17T21:44:55.000Z,62.592
2017-09-17T21:54:54.000Z,62.536
2017-09-17T22:04:54.000Z,62.597
2017-09-17T22:14:54.000Z,62.623
2017-09-17T22:24:54.000Z,62.566
2017-09-17T22:34:54.000Z,62.511
2017-09-17T22:44:54.000Z,62.677
2017-09-17T22:54:54.000Z,62.587
2017-09-17T23:04:54.000Z,62.625
2017-09-17T23:14:54.000Z,62.622
2017-09-17T23:24:54.000Z,62.638
2017-09-17T23:34:54.000Z,62.583
2017-09-17T23:44:54.000Z,62.644
2017-09-17T23:54:54.000Z,62.735
